METAR Data
IDs: Format: Raw Decoded Include TAF

Data at: 2221 UTC 24 Mar 2019

KE11 242215Z AUTO 27012G20KT 10SM CLR 27/M06 A3002 RMK AO2 T02671064
KE11 242155Z AUTO 25015G24KT 10SM CLR 27/M06 A3002 RMK AO2 T02661064
KE11 242135Z AUTO 27013G19KT 10SM CLR 27/M06 A3002 RMK AO2 T02661062
KE11 242115Z AUTO 26018G25KT 10SM CLR 27/M07 A3003 RMK AO2 T02671068
KE11 242055Z AUTO 27015G23KT 10SM CLR 27/M06 A3003 RMK AO2 T02701062
KE11 242035Z AUTO 24012G16KT 10SM CLR 27/M06 A3003 RMK AO2 T02661058
KE11 242015Z AUTO 27009G19KT 240V300 10SM CLR 27/M05 A3004 RMK AO2 T02651046
KE11 241955Z AUTO 26013G21KT 10SM CLR 27/M04 A3004 RMK AO2 T02651043
KE11 241935Z AUTO 26012G21KT 10SM CLR 26/M03 A3005 RMK AO2 T02591035
KE11 241915Z AUTO 25007G15KT 10SM CLR 25/M01 A3007 RMK AO2 T02521014
KE11 241855Z AUTO 00000KT 10SM CLR 24/M01 A3007 RMK AO2 T02411012
KE11 241835Z AUTO 28004KT 10SM CLR 23/M01 A3009 RMK AO2 T02341008
KE11 241815Z AUTO 32006KT 10SM CLR 23/00 A3010 RMK AO2 T02301003
KE11 241755Z AUTO 30006KT 10SM CLR 23/00 A3010 RMK AO2 T02290000 10229 20101
KE11 241735Z AUTO 28005KT 10SM CLR 23/00 A3010 RMK AO2 T02281003
KE11 241715Z AUTO 22004KT 10SM CLR 22/02 A3010 RMK AO2 T02150017
KE11 241655Z AUTO 20003KT 10SM CLR 20/01 A3011 RMK AO2 T02040014
KE11 241635Z AUTO 00000KT 10SM CLR 20/02 A3011 RMK AO2 T01970022
KE11 241615Z AUTO 34004KT 10SM CLR 19/05 A3010 RMK AO2 T01930048
KE11 241555Z AUTO 00000KT 10SM CLR 19/05 A3010 RMK AO2 T01850054
KE11 241535Z AUTO 27003KT 10SM CLR 18/06 A3011 RMK AO2 T01750062
KE11 241515Z AUTO 31005KT 10SM CLR 17/06 A3011 RMK AO2 T01730056
KE11 241455Z AUTO 25006KT 10SM CLR 16/08 A3009 RMK AO2 T01580075
KE11 241435Z AUTO 23006KT 10SM CLR 13/09 A3008 RMK AO2 T01300092
KE11 241415Z AUTO 24007KT 10SM CLR 12/11 A3007 RMK AO2 T01210106
KE11 241355Z AUTO 23009KT 10SM CLR 12/12 A3006 RMK AO2 T01150115
KE11 241335Z AUTO 23008KT 10SM CLR 10/10 A3005 RMK AO2 T01020102
KE11 241315Z AUTO 22008KT 10SM CLR 10/10 A3005 RMK AO2 T01010101
KE11 241255Z AUTO 22007KT 10SM CLR 11/11 A3004 RMK AO2 T01060106
KE11 241230Z AUTO 23008KT 10SM CLR 10/10 A3004 RMK AO2 T01030103
KE11 241215Z AUTO 23007KT 10SM CLR 10/10 A3004 RMK AO2 T01020102
KE11 241155Z AUTO 22007KT 10SM CLR 11/11 A3003 RMK AO2 T01050105 10130 20101
KE11 241135Z AUTO 23008KT 10SM CLR 11/11 A3003 RMK AO2 T01080108
KE11 241115Z AUTO 23009KT 10SM CLR 11/11 A3003 RMK AO2 T01100110
KE11 241055Z AUTO 22010KT 10SM CLR 11/11 A3003 RMK AO2 T01130113
KE11 241035Z AUTO 22009KT 10SM CLR 11/11 A3003 RMK AO2 T01110111
KE11 241015Z AUTO 22010KT 10SM CLR 11/11 A3003 RMK AO2 T01100110
KE11 240955Z AUTO 22011KT 10SM CLR 12/11 A3003 RMK AO2 T01170107
KE11 240935Z AUTO 22011KT 10SM CLR 12/10 A3003 RMK AO2 T01180095
KE11 240915Z AUTO 22011G17KT 10SM CLR 12/09 A3003 RMK AO2 T01200085
KE11 240855Z AUTO 21012G16KT 10SM CLR 12/07 A3003 RMK AO2 T01200071
KE11 240835Z AUTO 21010KT 10SM CLR 12/06 A3003 RMK AO2 T01240059
KE11 240815Z AUTO 22010KT 10SM CLR 13/05 A3003 RMK AO2 T01260049
KE11 240755Z AUTO 21011KT 10SM CLR 13/03 A3003 RMK AO2 T01250030
KE11 240735Z AUTO 22008KT 10SM CLR 13/M03 A3003 RMK AO2 T01261031
KE11 240715Z AUTO 22010KT 10SM CLR 12/M03 A3003 RMK AO2 T01201035
KE11 240655Z AUTO 22008KT 10SM CLR 13/M04 A3003 RMK AO2 T01251039
KE11 240635Z AUTO 26004KT 10SM CLR 12/M04 A3003 RMK AO2 T01201040
KE11 240615Z AUTO 27005KT 10SM CLR 11/M03 A3003 RMK AO2 T01101027
KE11 240555Z AUTO 27004KT 10SM CLR 10/M02 A3004 RMK AO2 T01011019 10223 20098
KE11 240535Z AUTO 24006KT 10SM CLR 11/M03 A3004 RMK AO2 T01071031
KE11 240515Z AUTO 23007KT 10SM CLR 12/M03 A3004 RMK AO2 T01151035
KE11 240455Z AUTO 24007KT 10SM CLR 11/M03 A3004 RMK AO2 T01131030 402310083
KE11 240435Z AUTO 23007KT 10SM CLR 13/M04 A3003 RMK AO2 T01261039
KE11 240415Z AUTO 24006KT 10SM CLR 14/M04 A3004 RMK AO2 T01361041
KE11 240355Z AUTO 23006KT 10SM CLR 14/M05 A3003 RMK AO2 T01411051
KE11 240335Z AUTO 24004KT 10SM CLR 15/M04 A3003 RMK AO2 T01461043
KE11 240315Z AUTO 26004KT 10SM CLR 15/M04 A3003 RMK AO2 T01461043
KE11 240255Z AUTO 26004KT 10SM CLR 16/M05 A3002 RMK AO2 T01551049
KE11 240235Z AUTO 25005KT 10SM CLR 17/M06 A3001 RMK AO2 T01671062
KE11 240215Z AUTO 26006KT 10SM CLR 18/M06 A3000 RMK AO2 T01751062
KE11 240155Z AUTO 25006KT 10SM CLR 17/M06 A2999 RMK AO2 T01721057
KE11 240135Z AUTO 24004KT 10SM CLR 18/M05 A2998 RMK AO2 T01771055
KE11 240115Z AUTO 23005KT 10SM CLR 18/M05 A2997 RMK AO2 T01831050
KE11 240055Z AUTO 20006KT 10SM CLR 20/M05 A2997 RMK AO2 T01971052
KE11 240035Z AUTO 23005KT 10SM CLR 21/M05 A2997 RMK AO2 T02111053
KE11 240015Z AUTO 24006KT 10SM CLR 22/M06 A2997 RMK AO2 T02211064
KE11 232355Z AUTO 23008KT 10SM CLR 22/M07 A2998 RMK AO2 T02191066 10231 20197
KE11 232335Z AUTO 25008KT 10SM CLR 22/M07 A2998 RMK AO2 T02161072
KE11 232315Z AUTO 23009G15KT 10SM CLR 22/M07 A2998 RMK AO2 T02221069
KE11 232255Z AUTO 22009G14KT 10SM CLR 23/M06 A2998 RMK AO2 T02291065
KE11 232235Z AUTO 24012G17KT 10SM CLR 22/M06 A2999 RMK AO2 T02201057
KE11 232215Z AUTO 26012G16KT 10SM CLR 23/M06 A2999 RMK AO2 T02281057
KE11 232155Z AUTO 25008G15KT 10SM CLR 22/M06 A2999 RMK AO2 T02241058
KE11 232135Z AUTO 26009KT 10SM CLR 23/M05 A3000 RMK AO2 T02281055
KE11 232115Z AUTO 26009G16KT 10SM CLR 22/M06 A3000 RMK AO2 T02201057
KE11 232055Z AUTO 26010G17KT 10SM CLR 23/M05 A3001 RMK AO2 T02251055
KE11 232035Z AUTO 26014G20KT 10SM CLR 22/M05 A3002 RMK AO2 T02201055
KE11 232015Z AUTO 24015G21KT 10SM CLR 22/M05 A3002 RMK AO2 T02231050
KE11 231955Z AUTO 26013G16KT 10SM CLR 22/M05 A3003 RMK AO2 T02221048
KE11 231935Z AUTO 25010G17KT 10SM CLR 22/M05 A3003 RMK AO2 T02211047
KE11 231915Z AUTO 27010G16KT 210V290 10SM CLR 21/M04 A3003 RMK AO2 T02121042
KE11 231855Z AUTO 26010G14KT 10SM CLR 22/M04 A3004 RMK AO2 T02171037
KE11 231835Z AUTO 26005KT 10SM CLR 21/M02 A3005 RMK AO2 T02071020
KE11 231815Z AUTO 30006KT 10SM CLR 20/M03 A3007 RMK AO2 T02021026
KE11 231755Z AUTO 28007KT 10SM CLR 20/M03 A3007 RMK AO2 T01951031 10200 20083
KE11 231735Z AUTO 33009KT 10SM CLR 20/M01 A3007 RMK AO2 T01961014
KE11 231715Z AUTO 30008G14KT 10SM CLR 19/M02 A3008 RMK AO2 T01921016
KE11 231655Z AUTO 32003KT 10SM CLR 19/M01 A3008 RMK AO2 T01861013
KE11 231635Z AUTO 35007KT 10SM CLR 18/M02 A3008 RMK AO2 T01821018
KE11 231615Z AUTO 35009KT 10SM CLR 18/M01 A3008 RMK AO2 T01791012
KE11 231555Z AUTO 35008KT 10SM CLR 17/00 A3008 RMK AO2 T01740000
KE11 231535Z AUTO 33009KT 10SM CLR 17/01 A3008 RMK AO2 T01660007
KE11 231515Z AUTO 32008KT 10SM CLR 15/03 A3008 RMK AO2 T01530029
KE11 231455Z AUTO 33007KT 10SM CLR 14/05 A3008 RMK AO2 LTG DSNT NE T01350047
KE11 231435Z AUTO 32005KT 10SM CLR 12/06 A3007 RMK AO2 T01160063
KE11 231415Z AUTO 32007KT 10SM CLR 10/08 A3007 RMK AO2 T00970083
KE11 231355Z AUTO 31006KT 10SM CLR 09/09 A3007 RMK AO2 T00850085
KE11 231335Z AUTO 30008KT 3SM BR SCT001 09/09 A3005 RMK AO2 T00880088
KE11 231315Z AUTO 29008KT 1/2SM FG OVC001 09/09 A3004 RMK AO2 T00910091
KE11 231255Z AUTO 29009KT M1/4SM FG OVC003 10/10 A3003 RMK AO2 T00960096
KE11 231235Z AUTO 30009KT 1/2SM FG OVC003 10/10 A3003 RMK AO2 T00970097
KE11 231215Z AUTO 30007KT 3SM BR OVC003 10/10 A3002 RMK AO2 T01020102
KE11 231155Z AUTO 30011KT 2 1/2SM BR OVC003 11/11 A3002 RMK AO2 70002 T01070107 10127 20096
KE11 231135Z AUTO 30008KT 1/2SM FG OVC003 11/11 A3002 RMK AO2 T01080108
KE11 231115Z AUTO 31007KT 1/4SM FG OVC003 10/10 A3001 RMK AO2 T00980098
KE11 231055Z AUTO 32005KT M1/4SM FG OVC003 10/10 A3000 RMK AO2 T00970097
KE11 231035Z AUTO 28004KT 3SM BR SCT003 11/11 A2999 RMK AO2 T01050105